EZY24LM EGAA-EGGP
Flight info
| Callsign | EZY24LM |
|---|---|
| Flight time | 0h 34m |
| Altitude | 21000 |
| Route | LISBO L603 PEPOD Q38 SOSIM L28 PENIL |
| Aircraft | A320/M-SDE3FGHIRWY/LB1 |
Departure
| Time | 2026-05-07 17:36 |
|---|---|
| Airport | Belfast International Airport (EGAA) |
Arrival
| Time | 2026-05-07 18:10 |
|---|---|
| Airport | Liverpool John Lennon Airport (EGGP) |
| Time | Latitude | Longitude | Altitude | Speed | Heading |
|---|---|---|---|---|---|
| 2026-05-07 17:02 | 54.66145 | -6.21379 | 241 ft | 0 kts | 245° |
| 2026-05-07 17:28 | 54.66149 | -6.21365 | 241 ft | 4 kts | 242° |
| 2026-05-07 17:28 | 54.66160 | -6.21323 | 242 ft | 4 kts | 249° |
| 2026-05-07 17:28 | 54.66170 | -6.21284 | 242 ft | 4 kts | 212° |
| 2026-05-07 17:28 | 54.66178 | -6.21278 | 243 ft | 0 kts | 180° |
| 2026-05-07 17:31 | 54.66170 | -6.21278 | 243 ft | 2 kts | 180° |
| 2026-05-07 17:31 | 54.66147 | -6.21271 | 243 ft | 5 kts | 163° |
| 2026-05-07 17:31 | 54.66107 | -6.21242 | 243 ft | 7 kts | 155° |
| 2026-05-07 17:32 | 54.66060 | -6.21205 | 244 ft | 8 kts | 152° |
| 2026-05-07 17:32 | 54.66057 | -6.21115 | 245 ft | 8 kts | 65° |
| 2026-05-07 17:32 | 54.66079 | -6.21033 | 246 ft | 9 kts | 65° |
| 2026-05-07 17:32 | 54.66113 | -6.20907 | 248 ft | 14 kts | 64° |
| 2026-05-07 17:33 | 54.66158 | -6.20740 | 250 ft | 14 kts | 65° |
| 2026-05-07 17:33 | 54.66196 | -6.20600 | 252 ft | 12 kts | 65° |
| 2026-05-07 17:33 | 54.66233 | -6.20461 | 254 ft | 14 kts | 65° |
| 2026-05-07 17:33 | 54.66275 | -6.20307 | 256 ft | 13 kts | 65° |
| 2026-05-07 17:34 | 54.66309 | -6.20181 | 258 ft | 10 kts | 65° |
| 2026-05-07 17:34 | 54.66342 | -6.20059 | 260 ft | 13 kts | 65° |
| 2026-05-07 17:34 | 54.66380 | -6.19920 | 261 ft | 11 kts | 64° |
| 2026-05-07 17:34 | 54.66393 | -6.19782 | 263 ft | 15 kts | 102° |
| 2026-05-07 17:35 | 54.66317 | -6.19666 | 264 ft | 13 kts | 156° |
| 2026-05-07 17:35 | 54.66260 | -6.19687 | 263 ft | 11 kts | 245° |
| 2026-05-07 17:35 | 54.66171 | -6.20013 | 261 ft | 64 kts | 245° |
| 2026-05-07 17:35 | 54.65883 | -6.21081 | 242 ft | 130 kts | 245° |
| 2026-05-07 17:36 | 54.65444 | -6.22692 | 502 ft | 153 kts | 240° |
| 2026-05-07 17:36 | 54.64995 | -6.24349 | 1232 ft | 152 kts | 237° |
| 2026-05-07 17:36 | 54.64531 | -6.26056 | 1826 ft | 166 kts | 239° |
| 2026-05-07 17:36 | 54.63703 | -6.27543 | 2183 ft | 185 kts | 204° |
| 2026-05-07 17:37 | 54.62372 | -6.27667 | 2572 ft | 211 kts | 163° |
| 2026-05-07 17:37 | 54.61074 | -6.26133 | 3002 ft | 242 kts | 141° |
| 2026-05-07 17:37 | 54.59868 | -6.23945 | 3697 ft | 259 kts | 135° |
| 2026-05-07 17:37 | 54.58695 | -6.21540 | 4633 ft | 265 kts | 133° |
| 2026-05-07 17:38 | 54.57514 | -6.19064 | 5573 ft | 269 kts | 133° |
| 2026-05-07 17:38 | 54.56304 | -6.16571 | 6520 ft | 273 kts | 134° |
| 2026-05-07 17:38 | 54.55059 | -6.14068 | 7427 ft | 276 kts | 134° |
| 2026-05-07 17:38 | 54.53788 | -6.11558 | 8350 ft | 280 kts | 135° |
| 2026-05-07 17:39 | 54.52492 | -6.09028 | 9289 ft | 283 kts | 135° |
| 2026-05-07 17:39 | 54.51198 | -6.06439 | 10148 ft | 290 kts | 134° |
| 2026-05-07 17:39 | 54.49848 | -6.03666 | 10443 ft | 314 kts | 133° |
| 2026-05-07 17:39 | 54.48421 | -6.00697 | 10952 ft | 328 kts | 133° |
| 2026-05-07 17:40 | 54.46960 | -5.97638 | 11696 ft | 333 kts | 133° |
| 2026-05-07 17:40 | 54.45479 | -5.94540 | 12476 ft | 338 kts | 133° |
| 2026-05-07 17:40 | 54.43972 | -5.91401 | 13257 ft | 342 kts | 133° |
| 2026-05-07 17:40 | 54.42442 | -5.88237 | 14004 ft | 346 kts | 133° |
| 2026-05-07 17:41 | 54.40891 | -5.85041 | 14706 ft | 350 kts | 134° |
| 2026-05-07 17:41 | 54.39325 | -5.81827 | 15407 ft | 353 kts | 134° |
| 2026-05-07 17:41 | 54.37740 | -5.78584 | 16109 ft | 356 kts | 134° |
| 2026-05-07 17:41 | 54.36144 | -5.75320 | 16790 ft | 359 kts | 134° |
| 2026-05-07 17:42 | 54.34529 | -5.72026 | 17451 ft | 363 kts | 134° |
| 2026-05-07 17:42 | 54.32896 | -5.68701 | 18129 ft | 366 kts | 134° |
| 2026-05-07 17:42 | 54.31247 | -5.65347 | 18718 ft | 370 kts | 134° |
| 2026-05-07 17:42 | 54.29582 | -5.61967 | 19293 ft | 373 kts | 134° |
| 2026-05-07 17:43 | 54.27924 | -5.58598 | 19862 ft | 377 kts | 134° |
| 2026-05-07 17:43 | 54.26255 | -5.55116 | 20442 ft | 381 kts | 132° |
| 2026-05-07 17:43 | 54.24649 | -5.51477 | 20842 ft | 385 kts | 130° |
| 2026-05-07 17:43 | 54.23099 | -5.47762 | 20937 ft | 380 kts | 129° |
| 2026-05-07 17:44 | 54.21609 | -5.44099 | 20954 ft | 372 kts | 129° |
| 2026-05-07 17:44 | 54.20136 | -5.40478 | 20956 ft | 370 kts | 129° |
| 2026-05-07 17:44 | 54.18661 | -5.36896 | 20957 ft | 369 kts | 129° |
| 2026-05-07 17:44 | 54.17169 | -5.33339 | 20956 ft | 369 kts | 130° |
| 2026-05-07 17:45 | 54.15665 | -5.29793 | 20947 ft | 368 kts | 130° |
| 2026-05-07 17:45 | 54.14156 | -5.26260 | 20961 ft | 368 kts | 130° |
| 2026-05-07 17:45 | 54.12646 | -5.22732 | 20955 ft | 368 kts | 130° |
| 2026-05-07 17:45 | 54.11136 | -5.19205 | 20962 ft | 368 kts | 130° |
| 2026-05-07 17:46 | 54.09628 | -5.15675 | 20958 ft | 368 kts | 130° |
| 2026-05-07 17:46 | 54.08120 | -5.12143 | 20958 ft | 368 kts | 130° |
| 2026-05-07 17:46 | 54.06615 | -5.08620 | 20959 ft | 369 kts | 130° |
| 2026-05-07 17:46 | 54.05102 | -5.05091 | 20968 ft | 369 kts | 130° |
| 2026-05-07 17:47 | 54.03588 | -5.01572 | 20971 ft | 369 kts | 130° |
| 2026-05-07 17:47 | 54.02074 | -4.98054 | 20971 ft | 369 kts | 130° |
| 2026-05-07 17:47 | 54.00556 | -4.94536 | 20971 ft | 368 kts | 130° |
| 2026-05-07 17:47 | 53.99039 | -4.91031 | 20970 ft | 368 kts | 130° |
| 2026-05-07 17:48 | 53.97524 | -4.87525 | 20970 ft | 368 kts | 130° |
| 2026-05-07 17:48 | 53.96007 | -4.84016 | 20971 ft | 368 kts | 130° |
| 2026-05-07 17:48 | 53.94488 | -4.80510 | 20977 ft | 369 kts | 130° |
| 2026-05-07 17:48 | 53.92969 | -4.77011 | 20978 ft | 369 kts | 130° |
| 2026-05-07 17:49 | 53.91446 | -4.73511 | 20981 ft | 369 kts | 130° |
| 2026-05-07 17:49 | 53.89924 | -4.70012 | 20958 ft | 369 kts | 129° |
| 2026-05-07 17:49 | 53.88402 | -4.66513 | 20962 ft | 369 kts | 129° |
| 2026-05-07 17:49 | 53.86878 | -4.63016 | 20965 ft | 369 kts | 130° |
| 2026-05-07 17:50 | 53.85348 | -4.59515 | 20972 ft | 369 kts | 130° |
| 2026-05-07 17:50 | 53.83820 | -4.56030 | 20974 ft | 369 kts | 130° |
| 2026-05-07 17:50 | 53.82299 | -4.52538 | 20904 ft | 367 kts | 127° |
| 2026-05-07 17:50 | 53.81082 | -4.48837 | 20649 ft | 362 kts | 116° |
| 2026-05-07 17:51 | 53.80166 | -4.44896 | 20395 ft | 358 kts | 114° |
| 2026-05-07 17:51 | 53.79270 | -4.40988 | 20142 ft | 355 kts | 114° |
| 2026-05-07 17:51 | 53.78377 | -4.37134 | 19796 ft | 351 kts | 115° |
| 2026-05-07 17:51 | 53.77485 | -4.33312 | 19365 ft | 349 kts | 115° |
| 2026-05-07 17:52 | 53.76590 | -4.29493 | 18933 ft | 348 kts | 115° |
| 2026-05-07 17:52 | 53.75687 | -4.25644 | 18494 ft | 348 kts | 115° |
| 2026-05-07 17:52 | 53.74807 | -4.21901 | 18044 ft | 347 kts | 115° |
| 2026-05-07 17:52 | 53.73917 | -4.18122 | 17600 ft | 345 kts | 115° |
| 2026-05-07 17:53 | 53.73032 | -4.14379 | 17182 ft | 342 kts | 115° |
| 2026-05-07 17:53 | 53.72154 | -4.10659 | 16775 ft | 340 kts | 115° |
| 2026-05-07 17:53 | 53.71284 | -4.06968 | 16364 ft | 338 kts | 115° |
| 2026-05-07 17:53 | 53.70415 | -4.03297 | 15957 ft | 336 kts | 115° |
| 2026-05-07 17:54 | 53.69550 | -3.99649 | 15558 ft | 334 kts | 115° |
| 2026-05-07 17:54 | 53.68689 | -3.96012 | 15155 ft | 333 kts | 115° |
| 2026-05-07 17:54 | 53.67832 | -3.92399 | 14762 ft | 331 kts | 115° |
| 2026-05-07 17:54 | 53.66977 | -3.88801 | 14356 ft | 330 kts | 115° |
| 2026-05-07 17:55 | 53.66122 | -3.85222 | 13957 ft | 329 kts | 115° |
| 2026-05-07 17:55 | 53.65269 | -3.81653 | 13532 ft | 327 kts | 115° |
| 2026-05-07 17:55 | 53.64421 | -3.78108 | 13115 ft | 325 kts | 115° |
| 2026-05-07 17:55 | 53.63575 | -3.74592 | 12715 ft | 322 kts | 115° |
| 2026-05-07 17:56 | 53.62736 | -3.71101 | 12309 ft | 320 kts | 115° |
| 2026-05-07 17:56 | 53.61842 | -3.67703 | 12010 ft | 312 kts | 122° |
| 2026-05-07 17:56 | 53.60620 | -3.64805 | 11750 ft | 297 kts | 135° |
| 2026-05-07 17:56 | 53.59188 | -3.62420 | 11169 ft | 291 kts | 140° |
| 2026-05-07 17:57 | 53.57739 | -3.60086 | 10881 ft | 286 kts | 140° |
| 2026-05-07 17:57 | 53.56762 | -3.58511 | 10606 ft | 286 kts | 140° |
| 2026-05-07 17:57 | 53.54894 | -3.55491 | 10049 ft | 278 kts | 140° |
| 2026-05-07 17:57 | 53.53527 | -3.53281 | 9614 ft | 267 kts | 140° |
| 2026-05-07 17:58 | 53.52221 | -3.51163 | 9240 ft | 256 kts | 140° |
| 2026-05-07 17:58 | 53.50943 | -3.49096 | 8882 ft | 254 kts | 140° |
| 2026-05-07 17:58 | 53.49670 | -3.47040 | 8515 ft | 258 kts | 140° |
| 2026-05-07 17:58 | 53.48412 | -3.44792 | 8146 ft | 269 kts | 130° |
| 2026-05-07 17:59 | 53.47471 | -3.42056 | 7788 ft | 273 kts | 120° |
| 2026-05-07 17:59 | 53.46649 | -3.39183 | 7430 ft | 272 kts | 120° |
| 2026-05-07 17:59 | 53.45834 | -3.36348 | 7082 ft | 268 kts | 120° |
| 2026-05-07 17:59 | 53.45040 | -3.33593 | 6979 ft | 255 kts | 120° |
| 2026-05-07 18:00 | 53.44296 | -3.31005 | 6992 ft | 239 kts | 121° |
| 2026-05-07 18:00 | 53.43591 | -3.28554 | 7009 ft | 230 kts | 121° |
| 2026-05-07 18:00 | 53.43061 | -3.26030 | 7014 ft | 234 kts | 102° |
| 2026-05-07 18:00 | 53.42965 | -3.23283 | 7016 ft | 237 kts | 96° |
| 2026-05-07 18:01 | 53.42951 | -3.20516 | 7017 ft | 237 kts | 95° |
| 2026-05-07 18:01 | 53.42947 | -3.17752 | 7017 ft | 237 kts | 95° |
| 2026-05-07 18:01 | 53.42945 | -3.15921 | 6999 ft | 237 kts | 95° |
| 2026-05-07 18:01 | 53.42940 | -3.12224 | 7017 ft | 237 kts | 95° |
| 2026-05-07 18:02 | 53.42801 | -3.06733 | 6550 ft | 234 kts | 99° |
| 2026-05-07 18:02 | 53.42636 | -3.04030 | 6238 ft | 233 kts | 100° |
| 2026-05-07 18:02 | 53.42465 | -3.01333 | 5905 ft | 232 kts | 100° |
| 2026-05-07 18:03 | 53.42296 | -2.98654 | 5589 ft | 231 kts | 100° |
| 2026-05-07 18:03 | 53.42123 | -2.95988 | 5273 ft | 229 kts | 100° |
| 2026-05-07 18:03 | 53.41948 | -2.93337 | 4964 ft | 228 kts | 100° |
| 2026-05-07 18:03 | 53.41774 | -2.90706 | 4656 ft | 226 kts | 100° |
| 2026-05-07 18:04 | 53.41596 | -2.88099 | 4345 ft | 224 kts | 100° |
| 2026-05-07 18:04 | 53.41315 | -2.85543 | 4043 ft | 221 kts | 108° |
| 2026-05-07 18:04 | 53.40916 | -2.83118 | 3905 ft | 212 kts | 110° |
| 2026-05-07 18:04 | 53.40514 | -2.80754 | 3644 ft | 210 kts | 110° |
| 2026-05-07 18:05 | 53.40109 | -2.78410 | 3370 ft | 209 kts | 110° |
| 2026-05-07 18:05 | 53.39700 | -2.76072 | 3095 ft | 209 kts | 110° |
| 2026-05-07 18:05 | 53.39288 | -2.73748 | 2826 ft | 207 kts | 110° |
| 2026-05-07 18:05 | 53.38876 | -2.71454 | 2608 ft | 202 kts | 110° |
| 2026-05-07 18:06 | 53.38487 | -2.69295 | 2529 ft | 184 kts | 110° |
| 2026-05-07 18:06 | 53.38134 | -2.67346 | 2393 ft | 165 kts | 114° |
| 2026-05-07 18:06 | 53.37417 | -2.65999 | 2060 ft | 154 kts | 160° |
| 2026-05-07 18:06 | 53.36379 | -2.65740 | 2033 ft | 152 kts | 184° |
| 2026-05-07 18:07 | 53.35367 | -2.66219 | 2006 ft | 153 kts | 207° |
| 2026-05-07 18:07 | 53.34553 | -2.67363 | 1925 ft | 156 kts | 229° |
| 2026-05-07 18:07 | 53.34098 | -2.69018 | 1780 ft | 160 kts | 255° |
| 2026-05-07 18:07 | 53.34002 | -2.70788 | 1593 ft | 146 kts | 261° |
| 2026-05-07 18:08 | 53.33930 | -2.72436 | 1409 ft | 140 kts | 261° |
| 2026-05-07 18:08 | 53.33858 | -2.74038 | 1229 ft | 136 kts | 261° |
| 2026-05-07 18:08 | 53.33787 | -2.75615 | 1047 ft | 136 kts | 262° |
| 2026-05-07 18:08 | 53.33716 | -2.77205 | 859 ft | 136 kts | 262° |
| 2026-05-07 18:09 | 53.33638 | -2.78783 | 673 ft | 135 kts | 260° |
| 2026-05-07 18:09 | 53.33564 | -2.80347 | 460 ft | 134 kts | 263° |
| 2026-05-07 18:09 | 53.33498 | -2.81904 | 300 ft | 132 kts | 265° |
| 2026-05-07 18:09 | 53.33433 | -2.83407 | 126 ft | 128 kts | 265° |
| 2026-05-07 18:10 | 53.33373 | -2.84722 | 94 ft | 83 kts | 266° |
| 2026-05-07 18:10 | 53.33364 | -2.85288 | 94 ft | 33 kts | 287° |
| 2026-05-07 18:10 | 53.33431 | -2.85555 | 96 ft | 14 kts | 291° |
| 2026-05-07 18:10 | 53.33476 | -2.85672 | 96 ft | 11 kts | 347° |
| 2026-05-07 18:11 | 53.33503 | -2.85584 | 94 ft | 9 kts | 85° |
| 2026-05-07 18:11 | 53.33506 | -2.85520 | 94 ft | 8 kts | 86° |
| 2026-05-07 18:11 | 53.33511 | -2.85400 | 95 ft | 7 kts | 86° |
| 2026-05-07 18:11 | 53.33515 | -2.85305 | 94 ft | 9 kts | 86° |
| 2026-05-07 18:12 | 53.33519 | -2.85202 | 96 ft | 8 kts | 85° |
| 2026-05-07 18:12 | 53.33523 | -2.85109 | 96 ft | 8 kts | 85° |
| 2026-05-07 18:12 | 53.33564 | -2.85066 | 95 ft | 11 kts | 0° |
| 2026-05-07 18:12 | 53.33625 | -2.85080 | 95 ft | 5 kts | 328° |
| 2026-05-07 18:13 | 53.33630 | -2.85145 | 94 ft | 7 kts | 266° |
| 2026-05-07 18:13 | 53.33629 | -2.85181 | 94 ft | 1 kts | 264° |
| 2026-05-07 18:13 | 53.33628 | -2.85184 | 94 ft | 0 kts | 264° |